Terminal Aerodrome Forecast
Issued by NWS

Home | Current Version | Previous Version | Graphics & Text | Print | Product List | Glossary On
Versions: 1 2 3 4 5 6 7 8 9 10 11 12 13 14 15 16
000
FTUS43 KTOP 151124
TAFFOE
TAF
KFOE 151124Z 1512/1612 22014G21KT P6SM OVC130
     FM151600 27011KT P6SM BKN250
     FM152000 31012KT P6SM BKN250
     FM160200 34016G24KT P6SM SCT015 OVC200
     FM160700 35019G27KT P6SM OVC022=

USA.gov is the U.S. government's official web portal to all federal, state and local government web resources and services.